createdAt,value
2023-02-25T00:01:08.419Z,2.10
2023-02-25T00:03:36.060Z,1.97
2023-02-25T00:06:03.891Z,2.10
2023-02-25T00:08:30.349Z,2.17
2023-02-25T00:11:01.951Z,2.00
2023-02-25T00:13:28.788Z,1.77
2023-02-25T00:15:58.470Z,1.90
2023-02-25T00:18:26.838Z,1.87
2023-02-25T00:20:53.189Z,2.03
2023-02-25T00:23:20.231Z,2.53
2023-02-25T00:25:47.153Z,2.00
2023-02-25T00:28:13.711Z,3.00
2023-02-25T00:30:40.812Z,2.70
2023-02-25T00:33:07.409Z,2.20
2023-02-25T00:35:34.534Z,2.67
2023-02-25T00:38:14.933Z,2.07
2023-02-25T00:40:42.458Z,2.33
2023-02-25T00:43:08.900Z,1.57
2023-02-25T00:45:35.704Z,1.97
2023-02-25T00:48:02.108Z,2.17
2023-02-25T00:50:28.466Z,2.00
2023-02-25T00:52:54.890Z,2.10
2023-02-25T00:55:21.302Z,1.67
2023-02-25T00:57:47.703Z,2.17
2023-02-25T01:00:17.012Z,1.87
2023-02-25T01:02:45.496Z,1.30
2023-02-25T01:05:15.225Z,1.80
2023-02-25T01:07:42.379Z,1.60
2023-02-25T01:10:10.919Z,2.00
2023-02-25T01:12:37.757Z,1.80
2023-02-25T01:15:04.984Z,2.47
2023-02-25T01:17:31.513Z,2.13
2023-02-25T01:19:58.046Z,1.70
2023-02-25T01:22:24.638Z,2.70
2023-02-25T01:24:51.074Z,2.07
2023-02-25T01:27:17.458Z,1.80
2023-02-25T01:29:43.831Z,1.57
2023-02-25T01:32:13.988Z,1.50
2023-02-25T01:34:41.179Z,1.70
2023-02-25T01:37:07.907Z,1.37
2023-02-25T01:39:34.453Z,1.80
2023-02-25T01:42:03.228Z,2.30
2023-02-25T01:44:32.198Z,1.80
2023-02-25T01:46:58.801Z,2.57
2023-02-25T01:49:30.740Z,1.83
2023-02-25T01:52:07.339Z,1.80
2023-02-25T01:54:35.711Z,1.80
2023-02-25T01:57:04.552Z,1.90
2023-02-25T01:59:31.602Z,1.37
2023-02-25T02:01:58.020Z,1.70
2023-02-25T02:04:26.159Z,2.10
2023-02-25T02:06:54.667Z,1.60
2023-02-25T02:09:26.610Z,2.20
2023-02-25T02:11:53.098Z,1.57
2023-02-25T02:14:27.732Z,1.53
2023-02-25T02:17:05.974Z,1.17
2023-02-25T02:19:32.512Z,1.83
2023-02-25T02:22:18.505Z,1.97
2023-02-25T02:25:09.736Z,1.60
2023-02-25T02:28:05.539Z,1.30
2023-02-25T02:31:06.085Z,1.43
2023-02-25T02:34:10.292Z,1.57
2023-02-25T02:36:49.543Z,2.50
2023-02-25T02:39:45.592Z,1.60
2023-02-25T02:42:22.332Z,1.20
2023-02-25T02:44:56.575Z,1.47
2023-02-25T02:47:31.180Z,1.20
2023-02-25T02:50:10.132Z,1.70
2023-02-25T02:52:48.772Z,1.50
2023-02-25T02:55:22.344Z,2.13
2023-02-25T02:57:52.550Z,1.50
2023-02-25T03:00:28.622Z,1.83
2023-02-25T03:02:59.697Z,1.43
2023-02-25T03:05:28.169Z,1.50
2023-02-25T03:08:06.979Z,1.30
2023-02-25T03:10:33.734Z,1.63
2023-02-25T03:13:01.654Z,1.50
2023-02-25T03:15:29.587Z,1.33
2023-02-25T03:18:00.346Z,1.50
2023-02-25T03:20:40.583Z,1.50
2023-02-25T03:23:12.736Z,2.07
2023-02-25T03:25:47.387Z,1.33
2023-02-25T03:28:23.857Z,1.17
2023-02-25T03:31:00.402Z,1.40
2023-02-25T03:33:31.904Z,1.27
2023-02-25T03:35:58.652Z,1.40
2023-02-25T03:38:27.419Z,0.80
2023-02-25T03:40:55.078Z,1.43
2023-02-25T03:43:25.934Z,1.63
2023-02-25T03:45:53.076Z,1.10
2023-02-25T03:48:21.286Z,1.60
2023-02-25T03:50:53.809Z,0.90
2023-02-25T03:53:20.291Z,1.00
2023-02-25T03:55:47.369Z,1.43
2023-02-25T03:58:13.744Z,1.00
2023-02-25T04:00:41.081Z,1.03
2023-02-25T04:03:07.500Z,1.40
2023-02-25T04:05:36.102Z,0.90
2023-02-25T04:08:02.941Z,1.20
2023-02-25T04:10:29.870Z,1.63
2023-02-25T04:12:56.323Z,1.00
2023-02-25T04:15:22.958Z,1.20
2023-02-25T04:17:49.331Z,1.00
2023-02-25T04:20:17.309Z,0.90
2023-02-25T04:22:43.974Z,1.37
2023-02-25T04:25:10.779Z,1.20
2023-02-25T04:27:37.513Z,1.00
2023-02-25T04:30:04.697Z,1.20
2023-02-25T04:32:31.175Z,1.00
2023-02-25T04:35:02.958Z,0.87
2023-02-25T04:37:30.199Z,1.03
2023-02-25T04:39:56.688Z,0.90
2023-02-25T04:42:23.799Z,1.10
2023-02-25T04:44:50.949Z,0.80
2023-02-25T04:47:18.961Z,0.90
2023-02-25T04:49:45.421Z,1.00
2023-02-25T04:52:13.020Z,0.90
2023-02-25T04:54:39.604Z,0.80
2023-02-25T04:57:07.003Z,0.80
2023-02-25T04:59:33.459Z,1.10
2023-02-25T05:02:00.783Z,0.93
2023-02-25T05:04:27.347Z,0.80
2023-02-25T05:06:53.848Z,1.10
2023-02-25T05:09:21.213Z,0.90
2023-02-25T05:11:47.625Z,0.90
2023-02-25T05:14:15.099Z,1.10
2023-02-25T05:16:41.853Z,1.30
2023-02-25T05:19:08.856Z,0.90
2023-02-25T05:21:35.376Z,1.00
2023-02-25T05:24:02.952Z,0.70
2023-02-25T05:26:29.326Z,1.30
2023-02-25T05:28:58.768Z,1.03
2023-02-25T05:31:25.950Z,0.90
2023-02-25T05:33:53.005Z,1.10
2023-02-25T05:36:19.556Z,1.00
2023-02-25T05:38:46.007Z,0.97
2023-02-25T05:41:13.287Z,1.03
2023-02-25T05:43:40.426Z,1.20
2023-02-25T05:46:11.739Z,1.17
2023-02-25T05:48:39.457Z,1.20
2023-02-25T05:51:09.022Z,1.27
2023-02-25T05:53:35.451Z,1.17
2023-02-25T05:56:06.706Z,1.30
2023-02-25T05:58:33.661Z,1.50
2023-02-25T06:01:00.515Z,1.10
2023-02-25T06:03:26.995Z,1.00
2023-02-25T06:05:53.472Z,1.63
2023-02-25T06:08:19.857Z,1.30
2023-02-25T06:10:46.272Z,1.00
2023-02-25T06:13:12.621Z,1.00
2023-02-25T06:15:41.154Z,1.20
2023-02-25T06:18:08.120Z,0.97
2023-02-25T06:20:35.349Z,1.00
2023-02-25T06:23:02.514Z,0.80
2023-02-25T06:25:30.246Z,1.10
2023-02-25T06:27:57.642Z,1.10
2023-02-25T06:30:24.556Z,0.80
2023-02-25T06:32:51.259Z,1.03
2023-02-25T06:35:18.371Z,0.80
2023-02-25T06:37:44.748Z,0.87
2023-02-25T06:40:15.520Z,1.10
2023-02-25T06:42:42.056Z,0.83
2023-02-25T06:45:09.748Z,1.10
2023-02-25T06:47:36.121Z,0.83
2023-02-25T06:50:02.941Z,1.10
2023-02-25T06:52:29.393Z,0.80
2023-02-25T06:54:55.917Z,1.00
2023-02-25T06:57:22.308Z,1.33
2023-02-25T06:59:48.700Z,0.97
2023-02-25T07:02:15.670Z,0.90
2023-02-25T07:04:43.958Z,0.90
2023-02-25T07:07:10.697Z,1.33
2023-02-25T07:09:37.165Z,1.37
2023-02-25T07:12:03.735Z,1.20
2023-02-25T07:14:30.269Z,1.20
2023-02-25T07:16:59.046Z,1.03
2023-02-25T07:19:25.509Z,0.90
2023-02-25T07:21:51.881Z,0.93
2023-02-25T07:24:18.320Z,0.70
2023-02-25T07:26:44.749Z,1.23
2023-02-25T07:29:11.209Z,0.93
2023-02-25T07:31:37.753Z,0.93
2023-02-25T07:34:04.451Z,1.07
2023-02-25T07:36:35.794Z,1.00
2023-02-25T07:39:06.793Z,1.27
2023-02-25T07:41:33.504Z,1.50
2023-02-25T07:43:59.993Z,1.00
2023-02-25T07:46:26.492Z,0.93
2023-02-25T07:48:52.949Z,0.77
2023-02-25T07:51:21.969Z,1.10
2023-02-25T07:53:49.573Z,1.00
2023-02-25T07:56:17.901Z,0.80
2023-02-25T07:58:44.530Z,1.07
2023-02-25T08:01:33.094Z,1.03
2023-02-25T08:04:04.121Z,0.90
2023-02-25T08:06:30.826Z,0.80
2023-02-25T08:08:57.353Z,0.90
2023-02-25T08:11:26.046Z,0.90
2023-02-25T08:13:52.767Z,1.10
2023-02-25T08:16:20.980Z,0.83
2023-02-25T08:18:47.753Z,0.60
2023-02-25T08:21:18.286Z,0.97
2023-02-25T08:23:44.991Z,0.90
2023-02-25T08:26:11.463Z,1.37
2023-02-25T08:28:38.305Z,1.63
2023-02-25T08:31:07.594Z,1.13
2023-02-25T08:33:34.112Z,1.00
2023-02-25T08:36:12.930Z,1.00
2023-02-25T08:38:39.472Z,0.80
2023-02-25T08:41:07.100Z,0.70
2023-02-25T08:43:33.926Z,0.77
2023-02-25T08:46:01.416Z,0.97
2023-02-25T08:48:28.264Z,0.80
2023-02-25T08:50:55.583Z,1.20
2023-02-25T08:53:22.755Z,0.90
2023-02-25T08:55:49.425Z,1.40
2023-02-25T08:58:15.806Z,0.90
2023-02-25T09:00:42.378Z,0.80
2023-02-25T09:03:10.193Z,0.83
2023-02-25T09:05:38.141Z,0.50
2023-02-25T09:08:04.951Z,0.90
2023-02-25T09:10:48.365Z,1.00
2023-02-25T09:13:17.462Z,0.87
2023-02-25T09:15:44.036Z,0.97
2023-02-25T09:18:11.840Z,1.30
2023-02-25T09:20:38.363Z,0.80
2023-02-25T09:23:04.878Z,0.63
2023-02-25T09:25:31.382Z,0.90
2023-02-25T09:27:57.906Z,0.90
2023-02-25T09:30:24.620Z,1.00
2023-02-25T09:32:53.377Z,0.93
2023-02-25T09:35:21.047Z,0.63
2023-02-25T09:37:47.473Z,0.70
2023-02-25T09:40:18.818Z,1.00
2023-02-25T09:43:27.154Z,0.90
2023-02-25T09:46:07.637Z,0.70
2023-02-25T09:48:41.339Z,0.93
2023-02-25T09:51:19.077Z,1.13
2023-02-25T09:54:08.498Z,1.20
2023-02-25T09:56:35.173Z,0.80
2023-02-25T09:59:01.664Z,1.00
2023-02-25T10:01:41.021Z,0.97
2023-02-25T10:04:15.040Z,0.67
2023-02-25T10:06:45.092Z,0.80
2023-02-25T10:09:38.987Z,1.00
2023-02-25T10:12:20.466Z,1.10
2023-02-25T10:15:06.049Z,1.13
2023-02-25T10:17:51.416Z,1.03
2023-02-25T10:20:38.646Z,0.80
2023-02-25T10:23:27.930Z,1.03
2023-02-25T10:26:07.305Z,0.80
2023-02-25T10:28:34.798Z,0.90
2023-02-25T10:31:08.905Z,0.90
2023-02-25T10:33:38.237Z,1.40
2023-02-25T10:36:10.471Z,1.30
2023-02-25T10:38:42.083Z,1.00
2023-02-25T10:41:08.509Z,2.03
2023-02-25T10:43:35.527Z,2.00
2023-02-25T10:46:05.886Z,2.70
2023-02-25T10:48:32.661Z,1.50
2023-02-25T10:51:12.751Z,1.20
2023-02-25T10:53:40.764Z,1.00
2023-02-25T10:56:08.212Z,1.03
2023-02-25T10:58:44.414Z,1.30
2023-02-25T11:01:17.065Z,0.90
2023-02-25T11:03:58.827Z,0.90
2023-02-25T11:06:31.659Z,1.00
2023-02-25T11:08:59.873Z,1.27
2023-02-25T11:11:34.665Z,1.17
2023-02-25T11:14:14.541Z,1.80
2023-02-25T11:16:44.128Z,1.60
2023-02-25T11:19:18.108Z,1.57
2023-02-25T11:21:44.857Z,1.10
2023-02-25T11:24:23.611Z,0.93
2023-02-25T11:26:52.279Z,1.07
2023-02-25T11:29:24.987Z,1.10
2023-02-25T11:31:54.453Z,1.20
2023-02-25T11:34:23.415Z,0.90
2023-02-25T11:36:51.287Z,0.97
2023-02-25T11:39:21.247Z,0.60
2023-02-25T11:41:49.834Z,0.80
2023-02-25T11:44:29.618Z,1.00
2023-02-25T11:47:20.972Z,0.70
2023-02-25T11:50:05.242Z,0.80
2023-02-25T11:52:36.131Z,0.90
2023-02-25T11:55:12.650Z,0.80
2023-02-25T11:58:05.729Z,0.83
2023-02-25T12:01:04.731Z,1.00
2023-02-25T12:03:47.311Z,0.90
2023-02-25T12:06:44.500Z,1.00
2023-02-25T12:09:45.084Z,1.00
2023-02-25T12:12:55.257Z,1.30
2023-02-25T12:15:42.172Z,1.30
2023-02-25T12:18:23.819Z,1.33
2023-02-25T12:21:08.629Z,0.80
2023-02-25T12:23:53.625Z,1.10
2023-02-25T12:26:47.931Z,1.67
2023-02-25T12:29:25.160Z,1.37
2023-02-25T12:32:13.183Z,1.50
2023-02-25T12:35:17.532Z,0.90
2023-02-25T12:38:02.790Z,1.10
2023-02-25T12:40:39.428Z,1.50
2023-02-25T12:43:11.418Z,1.60
2023-02-25T12:45:49.892Z,1.10
2023-02-25T12:48:48.834Z,1.50
2023-02-25T12:51:46.530Z,1.00
2023-02-25T12:54:39.144Z,1.10
2023-02-25T12:57:27.090Z,1.50
2023-02-25T13:00:02.641Z,1.40
2023-02-25T13:02:44.349Z,1.30
2023-02-25T13:05:42.221Z,1.30
2023-02-25T13:08:25.891Z,1.20
2023-02-25T13:11:10.636Z,1.10
2023-02-25T13:13:55.108Z,1.23
2023-02-25T13:16:49.502Z,1.23
2023-02-25T13:19:39.496Z,0.90
2023-02-25T13:22:38.412Z,1.10
2023-02-25T13:25:21.152Z,1.27
2023-02-25T13:28:14.552Z,1.60
2023-02-25T13:31:05.689Z,1.23
2023-02-25T13:33:46.240Z,0.97
2023-02-25T13:36:42.441Z,1.40
2023-02-25T13:39:46.822Z,1.10
2023-02-25T13:42:40.965Z,1.50
2023-02-25T13:45:30.693Z,1.10
2023-02-25T13:48:05.825Z,1.60
2023-02-25T13:51:00.306Z,1.33
2023-02-25T13:53:37.262Z,1.27
2023-02-25T13:56:26.891Z,1.10
2023-02-25T13:59:18.144Z,1.40
2023-02-25T14:02:00.582Z,1.33
2023-02-25T14:05:04.497Z,1.60
2023-02-25T14:07:48.085Z,1.33
2023-02-25T14:10:32.266Z,1.20
2023-02-25T14:13:16.359Z,1.23
2023-02-25T14:15:58.938Z,1.43
2023-02-25T14:18:38.568Z,1.27
2023-02-25T14:21:32.917Z,1.20
2023-02-25T14:24:08.568Z,1.23
2023-02-25T14:26:53.750Z,1.10
2023-02-25T14:29:56.216Z,1.27
2023-02-25T14:32:34.973Z,1.13
2023-02-25T14:35:39.096Z,1.77
2023-02-25T14:38:15.050Z,1.13
2023-02-25T14:40:50.029Z,1.30
2023-02-25T14:43:27.983Z,1.50
2023-02-25T14:46:10.659Z,1.03
2023-02-25T14:49:15.754Z,1.10
2023-02-25T14:52:14.322Z,1.30
2023-02-25T14:55:02.392Z,1.17
2023-02-25T14:57:57.249Z,1.10
2023-02-25T15:00:36.865Z,1.17
2023-02-25T15:03:41.687Z,1.23
2023-02-25T15:06:22.015Z,1.57
2023-02-25T15:09:03.866Z,1.23
2023-02-25T15:11:50.548Z,1.53
2023-02-25T15:14:35.720Z,1.10
2023-02-25T15:17:18.237Z,1.83
2023-02-25T15:20:27.086Z,1.33
2023-02-25T15:23:08.676Z,1.30
2023-02-25T15:25:41.217Z,1.50
2023-02-25T15:28:29.477Z,1.70
2023-02-25T15:31:02.504Z,1.30
2023-02-25T15:33:42.644Z,1.30
2023-02-25T15:36:15.146Z,1.10
2023-02-25T15:39:06.083Z,1.33
2023-02-25T15:41:32.737Z,1.47
2023-02-25T15:44:01.427Z,1.53
2023-02-25T15:46:38.851Z,1.30
2023-02-25T15:49:12.783Z,1.73
2023-02-25T15:51:51.508Z,1.40
2023-02-25T15:54:30.265Z,1.53
2023-02-25T15:57:05.134Z,1.50
2023-02-25T15:59:52.946Z,1.30
2023-02-25T16:02:35.012Z,1.40
2023-02-25T16:05:14.796Z,1.00
2023-02-25T16:07:46.357Z,1.20
2023-02-25T16:10:18.836Z,1.30
2023-02-25T16:12:49.521Z,1.20
2023-02-25T16:15:23.617Z,1.10
2023-02-25T16:17:50.191Z,1.23
2023-02-25T16:20:26.110Z,1.30
2023-02-25T16:22:57.077Z,1.40
2023-02-25T16:25:44.158Z,2.07
2023-02-25T16:28:21.734Z,1.60
2023-02-25T16:31:18.603Z,1.80
2023-02-25T16:34:12.997Z,1.60
2023-02-25T16:37:02.254Z,1.43
2023-02-25T16:39:30.166Z,1.53
2023-02-25T16:42:02.300Z,1.20
2023-02-25T16:44:33.465Z,1.33
2023-02-25T16:47:00.114Z,1.23
2023-02-25T16:49:39.443Z,1.57
2023-02-25T16:52:07.712Z,1.53
2023-02-25T16:54:37.739Z,1.10
2023-02-25T16:57:07.257Z,1.20
2023-02-25T16:59:36.238Z,1.20
2023-02-25T17:02:23.183Z,1.10
2023-02-25T17:04:54.799Z,1.43
2023-02-25T17:07:27.725Z,1.33
2023-02-25T17:10:01.917Z,1.63
2023-02-25T17:12:31.031Z,1.30
2023-02-25T17:14:59.615Z,1.57
2023-02-25T17:17:34.001Z,1.40
2023-02-25T17:20:06.550Z,1.20
2023-02-25T17:22:35.326Z,1.37
2023-02-25T17:25:03.979Z,1.10
2023-02-25T17:27:30.810Z,1.80
2023-02-25T17:29:57.738Z,1.80
2023-02-25T17:32:27.290Z,1.90
2023-02-25T17:34:57.519Z,1.60
2023-02-25T17:37:26.120Z,1.90
2023-02-25T17:39:53.529Z,1.73
2023-02-25T17:42:37.045Z,1.80
2023-02-25T17:45:07.235Z,1.37
2023-02-25T17:47:35.751Z,1.50
2023-02-25T17:50:20.064Z,1.83
2023-02-25T17:52:48.349Z,1.77
2023-02-25T17:55:27.376Z,1.70
2023-02-25T17:57:57.818Z,1.50
2023-02-25T18:00:32.356Z,1.90
2023-02-25T18:03:22.071Z,1.50
2023-02-25T18:05:59.940Z,1.57
2023-02-25T18:08:28.839Z,1.33
2023-02-25T18:11:03.453Z,1.67
2023-02-25T18:13:36.108Z,1.77
2023-02-25T18:16:28.705Z,1.70
2023-02-25T18:18:55.800Z,1.40
2023-02-25T18:21:22.443Z,1.50
2023-02-25T18:23:51.005Z,1.40
2023-02-25T18:26:21.863Z,1.87
2023-02-25T18:28:48.587Z,1.33
2023-02-25T18:31:16.774Z,1.90
2023-02-25T18:33:43.290Z,1.63
2023-02-25T18:36:11.912Z,1.60
2023-02-25T18:38:38.375Z,1.77
2023-02-25T18:41:08.355Z,1.67
2023-02-25T18:43:39.875Z,1.40
2023-02-25T18:46:06.287Z,1.67
2023-02-25T18:48:32.898Z,1.80
2023-02-25T18:50:59.316Z,1.90
2023-02-25T18:53:26.831Z,1.70
2023-02-25T18:55:54.457Z,1.57
2023-02-25T18:58:21.826Z,1.57
2023-02-25T19:00:51.978Z,1.60
2023-02-25T19:03:34.925Z,1.37
2023-02-25T19:06:01.314Z,1.80
2023-02-25T19:08:27.721Z,1.73
2023-02-25T19:10:54.417Z,1.80
2023-02-25T19:13:31.459Z,1.80
2023-02-25T19:15:57.991Z,2.07
2023-02-25T19:18:24.488Z,1.80
2023-02-25T19:20:51.012Z,2.20
2023-02-25T19:23:19.030Z,1.80
2023-02-25T19:25:47.403Z,2.10
2023-02-25T19:28:14.238Z,1.60
2023-02-25T19:30:42.713Z,2.00
2023-02-25T19:33:10.694Z,2.10
2023-02-25T19:35:39.694Z,1.90
2023-02-25T19:38:08.368Z,1.87
2023-02-25T19:40:36.466Z,2.20
2023-02-25T19:43:04.700Z,2.00
2023-02-25T19:45:31.415Z,2.00
2023-02-25T19:47:58.016Z,2.10
2023-02-25T19:50:25.585Z,2.10
2023-02-25T19:52:53.752Z,2.47
2023-02-25T19:55:20.452Z,2.33
2023-02-25T19:57:47.286Z,2.37
2023-02-25T20:00:18.452Z,2.50
2023-02-25T20:02:44.973Z,2.17
2023-02-25T20:05:11.982Z,2.37
2023-02-25T20:07:38.609Z,2.60
2023-02-25T20:10:06.703Z,2.60
2023-02-25T20:12:33.108Z,2.43
2023-02-25T20:14:59.487Z,2.57
2023-02-25T20:17:26.176Z,2.23
2023-02-25T20:19:52.632Z,1.97
2023-02-25T20:22:21.268Z,2.37
2023-02-25T20:24:48.759Z,2.20
2023-02-25T20:27:15.637Z,2.13
2023-02-25T20:29:42.314Z,1.83
2023-02-25T20:32:08.871Z,2.00
2023-02-25T20:34:35.550Z,1.80
2023-02-25T20:37:15.142Z,2.37
2023-02-25T20:39:49.526Z,2.30
2023-02-25T20:42:20.048Z,1.90
2023-02-25T20:44:51.851Z,2.00
2023-02-25T20:47:21.492Z,1.73
2023-02-25T20:49:48.368Z,2.07
2023-02-25T20:52:15.793Z,2.23
2023-02-25T20:54:42.536Z,2.33
2023-02-25T20:57:14.245Z,1.70
2023-02-25T20:59:40.637Z,2.10
2023-02-25T21:02:07.896Z,2.70
2023-02-25T21:04:34.418Z,2.17
2023-02-25T21:07:01.126Z,2.20
2023-02-25T21:09:27.612Z,2.20
2023-02-25T21:11:54.307Z,2.57
2023-02-25T21:14:21.003Z,2.03
2023-02-25T21:16:47.503Z,2.30
2023-02-25T21:19:13.933Z,2.20
2023-02-25T21:21:40.549Z,2.10
2023-02-25T21:24:10.332Z,2.40
2023-02-25T21:26:39.754Z,2.37
2023-02-25T21:29:07.005Z,2.00
2023-02-25T21:31:33.634Z,2.30
2023-02-25T21:34:00.618Z,2.60
2023-02-25T21:36:27.144Z,2.20
2023-02-25T21:38:53.649Z,2.17
2023-02-25T21:41:20.520Z,1.73
2023-02-25T21:43:46.945Z,2.00
2023-02-25T21:46:16.110Z,2.07
2023-02-25T21:48:44.065Z,2.17
2023-02-25T21:51:18.870Z,2.80
2023-02-25T21:53:45.579Z,1.63
2023-02-25T21:56:15.061Z,2.27
2023-02-25T21:58:41.598Z,1.90
2023-02-25T22:01:20.357Z,1.77
2023-02-25T22:03:47.327Z,1.47
2023-02-25T22:06:15.825Z,1.53
2023-02-25T22:08:44.567Z,1.40
2023-02-25T22:11:16.898Z,1.23
2023-02-25T22:13:43.398Z,1.57
2023-02-25T22:16:11.025Z,1.20
2023-02-25T22:18:38.006Z,1.37
2023-02-25T22:21:15.109Z,1.50
2023-02-25T22:23:45.468Z,1.43
2023-02-25T22:26:14.868Z,1.47
2023-02-25T22:28:42.505Z,1.93
2023-02-25T22:31:11.100Z,2.40
2023-02-25T22:33:37.758Z,2.20
2023-02-25T22:36:05.303Z,1.40
2023-02-25T22:38:34.242Z,1.70
2023-02-25T22:41:04.057Z,1.90
2023-02-25T22:43:31.373Z,1.90
2023-02-25T22:46:09.269Z,1.80
2023-02-25T22:48:36.960Z,1.70
2023-02-25T22:51:03.890Z,1.67
2023-02-25T22:53:30.500Z,1.90
2023-02-25T22:56:04.281Z,2.03
2023-02-25T22:58:31.171Z,2.13
2023-02-25T23:00:57.727Z,2.10
2023-02-25T23:03:24.455Z,1.47
2023-02-25T23:05:52.621Z,1.53
2023-02-25T23:08:21.260Z,1.40
2023-02-25T23:10:47.865Z,1.00
2023-02-25T23:13:14.352Z,1.40
2023-02-25T23:15:41.780Z,1.40
2023-02-25T23:18:09.421Z,1.40
2023-02-25T23:20:38.984Z,1.50
2023-02-25T23:23:06.721Z,1.53
2023-02-25T23:25:36.738Z,1.57
2023-02-25T23:28:04.339Z,1.60
2023-02-25T23:30:30.854Z,2.00
2023-02-25T23:32:57.889Z,1.80
2023-02-25T23:35:24.883Z,1.93
2023-02-25T23:37:51.845Z,2.30
2023-02-25T23:40:18.308Z,2.23
2023-02-25T23:42:44.971Z,2.47
2023-02-25T23:45:13.779Z,1.90
2023-02-25T23:47:42.762Z,1.60
2023-02-25T23:50:11.651Z,2.30
2023-02-25T23:52:38.654Z,2.27
2023-02-25T23:55:06.811Z,1.90
2023-02-25T23:57:33.955Z,1.40
